• Join FlightAware (Why Join?)
  • Login
  • US Flag 
09:44PM EDT


 

Airport Tracker/Info


-or-


 

Live Flight TrackerFlight Track Log ✈ SKW5429 ✈ 07-May-2012 ✈ KRAP - KDEN

Flight Track Log - Related Links

Times and Time Zones

All times are in EDT time to prevent confusion due to time zone crossing. See the SKW5429 flight status page for this flight to view local times or setup timezone preferences in your user account.

Time Position Orientation Groundspeed Altitude Reporting Facility
EDT Latitude Longitude Course Direction KTS MPH feet Rate Location/Type
09:36AM 44.0586 -103.0700 240° Southwest 148 170 3,800  Level Denver Center
09:40AM 43.9181 -103.4092 212° Southwest 276 318 8,100 780 Climbing Denver Center
09:41AM 43.8550 -103.4642 166° South 259 298 7,900 -60 Descending Denver Center
09:42AM 43.7981 -103.4439 North 272 313 8,000 -120 Climbing Denver Center
09:43AM 43.8458 -103.4414 339° North 220 253 7,700  Descending Denver Center
09:44AM 43.8967 -103.4678 210° Southwest 214 246 8,100 1,380 Climbing Denver Center
09:45AM 43.8517 -103.5044 173° South 298 343 10,300 2,640 Climbing Denver Center
09:46AM 43.7703 -103.4911 171° South 311 358 13,000 2,460 Climbing Denver Center
09:47AM 43.6947 -103.4747 175° South 311 358 15,300 2,280 Climbing Denver Center
09:48AM 43.6092 -103.4644 174° South 311 358 17,600 1,680 Climbing Denver Center
09:49AM 43.5086 -103.4494 174° South 323 372 18,700 1,020 Climbing Denver Center
09:50AM 43.4061 -103.4344 173° South 354 407 19,700 1,200 Climbing Denver Center
09:51AM 43.3017 -103.4167 172° South 380 437 21,100 1,620 Climbing Denver Center
09:52AM 43.2053 -103.3986 172° South 392 451 23,000 1,620 Climbing Denver Center
09:53AM 43.0922 -103.3756 172° South 387 445 24,400 1,440 Climbing Denver Center
09:54AM 42.9853 -103.3553 172° South 387 445 25,900 900 Climbing Denver Center
09:55AM 42.8828 -103.3350 172° South 387 445 26,300 780 Climbing Denver Center
09:56AM 42.7883 -103.3169 183° South 387 445 27,500 1,140 Climbing Denver Center
09:57AM 42.6783 -103.3253 187° South 371 427 28,600 840 Climbing Denver Center
09:58AM 42.5806 -103.3414 190° South 364 419 29,200 900 Climbing Denver Center
09:59AM 42.4814 -103.3658 188° South 369 425 30,400 1,020 Climbing Denver Center
10:00AM 42.3961 -103.3814 188° South 363 418 31,300 780 Climbing Denver Center
10:01AM 42.2925 -103.4003 188° South 352 405 32,000 300 Climbing Denver Center
10:02AM 42.1972 -103.4189 189° South 352 405 32,000  Level Denver Center
10:03AM 42.0975 -103.4403 188° South 357 411 32,000  Level Denver Center
10:04AM 42.0022 -103.4589 189° South 377 434 32,000  Level Denver Center
10:05AM 41.9047 -103.4800 186° South 377 434 32,000  Level Denver Center
10:06AM 41.7906 -103.4964 188° South 371 427 32,000  Level Denver Center
10:07AM 41.6931 -103.5147 186° South 366 421 32,000  Level Denver Center
10:08AM 41.6036 -103.5272 186° South 366 421 32,000  Level Denver Center
10:09AM 41.5061 -103.5400 187° South 360 414 32,000  Level Denver Center
10:10AM 41.3981 -103.5586 184° South 365 420 32,000  Level Denver Center
10:11AM 41.2983 -103.5686 187° South 359 413 32,000  Level Denver Center
10:12AM 41.2089 -103.5836 186° South 365 420 32,000  Level Denver Center
10:13AM 41.1133 -103.5958 186° South 365 420 32,000  Level Denver Center
10:14AM 41.0075 -103.6114 189° South 360 414 32,000  Level Denver Center
10:15AM 40.9142 -103.6319 190° South 352 405 32,000  Level Denver Center
10:16AM 40.8186 -103.6553 208° Southwest 346 398 32,000 -480 Level Denver Center
10:17AM 40.7367 -103.7136 211° Southwest 346 398 31,100 -2,340 Descending Denver Center
10:18AM 40.6508 -103.7828 211° Southwest 351 404 27,400 -3,780 Descending Denver Center
10:19AM 40.5628 -103.8519 208° Southwest 364 419 23,600 -3,900 Descending Denver Center
10:20AM 40.4683 -103.9183 210° Southwest 375 432 19,700 -3,300 Descending Denver Center
10:21AM 40.3781 -103.9872 224° Southwest 380 437 17,100 -1,380 Descending Denver Center
10:22AM 40.3150 -104.0658 224° Southwest 337 388 17,000 -60 Descending Denver Center
10:23AM 40.2642 -104.1303 225° Southwest 304 350 17,000 -300 Level Denver Center
10:24AM 40.2075 -104.2056 226° Southwest 287 330 16,500 -1,320 Descending Denver Center
10:25AM 40.1525 -104.2808 226° Southwest 287 330 14,400 -1,260 Descending Denver Center
10:26AM 40.0975 -104.3558 225° Southwest 287 330 14,000 -240 Descending Denver Center
10:27AM 40.0406 -104.4308 225° Southwest 292 336 14,000  Level Denver Center
10:28AM 39.9836 -104.5058 221° Southwest 292 336 14,000 -600 Level Denver Center
10:29AM 39.9303 -104.5669 168° South 271 312 12,800 -1,020 Descending Denver Center
10:30AM 39.8667 -104.5500 169° South 250 288 12,100 -960 Descending Denver TRACON
10:31AM 39.8000 -104.5333 180° South 239 275 11,000 -600 Descending Denver TRACON
10:32AM 39.7333 -104.5333 180° South 247 284 11,000 -420 Level Denver TRACON
10:33AM 39.6667 -104.5333 180° South 240 276 10,200 -480 Descending Denver TRACON
10:34AM 39.6000 -104.5333 180° South 220 253 10,100 -540 Descending Denver TRACON
10:35AM 39.5500 -104.5333 180° South 209 241 9,200 -600 Descending Denver TRACON
10:36AM 39.4833 -104.5333 194° South 191 220 9,000 -120 Descending Denver TRACON
10:37AM 39.4333 -104.5500 303° West 210 242 9,000  Level Denver TRACON
10:38AM 39.4667 -104.6167 346° North 210 242 9,000  Level Denver TRACON
10:38AM 39.5167 -104.6333 346° North 211 243 9,000  Level Denver TRACON
10:39AM 39.5667 -104.6500 360° North 205 236 9,000  Level Denver TRACON
10:40AM 39.6167 -104.6500 360° North 203 234 9,000 -300 Level Denver TRACON
10:41AM 39.6833 -104.6500 360° North 202 232 8,500 -840 Descending Denver TRACON
10:42AM 39.7333 -104.6500 360° North 184 212 7,400 -1,140 Descending Denver TRACON